Vardehorn — LLAE — position and weather

sailwx.info

Track history (hours):
 
Tides and Currents Weather Stations Pressure Air Temp Water Temp Dewpoint Dewpoint Depression Visibility Wind Speed Wind Dir Waves Ship Positions

Vardehorn

Last reported at 2018-Feb-18 19:30 UTC. Time now 2018-Feb-18 19:35 UTC.
Position N 68°04' E 016°10'.

Length 112 m; draft 3.2 m.

Type: Passenger vessel. MMSI: 259650000.

Date/timePositionNaut miles runAvg speedWind from/ knotsBaromVisibWave heightAir tempDewpointWater temp
2018-Feb-18 19:30N 68°04' E 016°10'4 8.5
2018-Feb-18 18:59N 68°06' E 016°21'3 5.8
2018-Feb-18 18:30N 68°06' E 016°14'4 9.0
2018-Feb-18 18:00N 68°03' E 016°05'3 6.2
2018-Feb-18 17:30N 68°05' E 016°11'4 7.7
2018-Feb-18 17:00N 68°06' E 016°21'3 5.4
2018-Feb-18 16:30N 68°06' E 016°14'4 8.8
2018-Feb-18 16:00N 68°03' E 016°05'3 5.4
2018-Feb-18 15:30N 68°05' E 016°10'4 8.4
2018-Feb-18 15:00N 68°06' E 016°21'3 5.5
2018-Feb-18 14:29N 68°06' E 016°14'4 8.4
2018-Feb-18 13:59N 68°03' E 016°05'3 5.5
2018-Feb-18 13:30N 68°05' E 016°10'4 8.6
2018-Feb-18 13:00N 68°06' E 016°21'3 5.2
2018-Feb-18 12:30N 68°06' E 016°14'4 8.9
2018-Feb-18 12:00N 68°03' E 016°05'3 5.2
2018-Feb-18 11:30N 68°05' E 016°10'4 8.6
2018-Feb-18 11:00N 68°06' E 016°21'3 5.1
2018-Feb-18 10:30N 68°06' E 016°14'5 8.7
2018-Feb-18 09:59N 68°03' E 016°05'3 5.5
2018-Feb-18 09:29N 68°05' E 016°11'4 8.4
2018-Feb-18 08:59N 68°06' E 016°21'3 5.6
2018-Feb-18 08:29N 68°06' E 016°14'4 8.8
2018-Feb-18 08:00N 68°03' E 016°05'2 3.8
2018-Feb-18 07:29N 68°04' E 016°09'510.1
2018-Feb-18 07:01N 68°06' E 016°21'1 2.1
2018-Feb-18 06:30N 68°06' E 016°18'5 9.2
2018-Feb-18 06:00N 68°04' E 016°07'2 3.0
2018-Feb-18 05:29N 68°05' E 016°10'4 9.0
2018-Feb-18 05:00N 68°06' E 016°21'0 0.0
2018-Feb-18 04:30N 68°06' E 016°21'0 0.0
2018-Feb-18 04:00N 68°06' E 016°21'0 0.0
2018-Feb-18 03:30N 68°06' E 016°21'0 0.0
2018-Feb-18 03:00N 68°06' E 016°21'0 0.0
2018-Feb-18 02:30N 68°06' E 016°21'0 0.0
2018-Feb-18 02:00N 68°06' E 016°21'0 0.0
2018-Feb-18 01:30N 68°06' E 016°21'0 0.0
2018-Feb-18 01:00N 68°06' E 016°21'0 0.0
2018-Feb-18 00:30N 68°06' E 016°21'0 0.0
2018-Feb-18 00:00N 68°06' E 016°21'0 0.0
2018-Feb-17 23:30N 68°06' E 016°21'0 0.0
2018-Feb-17 23:00N 68°06' E 016°21'3 5.1
2018-Feb-17 22:30N 68°06' E 016°15'5 9.6
2018-Feb-17 22:01N 68°03' E 016°05'2 4.2
2018-Feb-17 21:30N 68°04' E 016°09'5 9.2
2018-Feb-17 21:00N 68°06' E 016°21'2 4.8
2018-Feb-17 20:30N 68°06' E 016°15'5 9.9
2018-Feb-17 20:00N 68°03' E 016°05'2 4.7
2018-Feb-17 19:30N 68°04' E 016°10'4 9.0
2018-Feb-17 19:00N 68°06' E 016°21'3 5.0
2018-Feb-17 18:30N 68°06' E 016°15'5 9.7
2018-Feb-17 18:01N 68°03' E 016°05'2 4.8
2018-Feb-17 17:30N 68°04' E 016°10'4 8.8
2018-Feb-17 17:00N 68°06' E 016°21'3 5.2
2018-Feb-17 16:29N 68°06' E 016°14'4 9.1
2018-Feb-17 16:00N 68°03' E 016°05'3 5.1
2018-Feb-17 15:30N 68°05' E 016°10'4 8.5
2018-Feb-17 15:00N 68°06' E 016°21'3 5.3
2018-Feb-17 14:29N 68°06' E 016°14'4 9.3
2018-Feb-17 14:01N 68°03' E 016°05'3 5.0
2018-Feb-17 13:30N 68°04' E 016°10'4 8.6
2018-Feb-17 13:00N 68°06' E 016°21'3 5.6
2018-Feb-17 12:31N 68°06' E 016°14'4 8.4
2018-Feb-17 12:00N 68°03' E 016°05'3 5.3
2018-Feb-17 11:30N 68°05' E 016°10'4 8.5
2018-Feb-17 11:00N 68°06' E 016°21'3 5.2
2018-Feb-17 10:30N 68°06' E 016°15'5 9.1
2018-Feb-17 10:01N 68°03' E 016°05'3 5.1
2018-Feb-17 09:30N 68°05' E 016°10'4 8.4
2018-Feb-17 09:00N 68°06' E 016°21'3 5.3
2018-Feb-17 08:29N 68°06' E 016°14'4 9.0
2018-Feb-17 08:00N 68°03' E 016°05'2 3.9
2018-Feb-17 07:29N 68°04' E 016°09'5 9.6
2018-Feb-17 06:59N 68°06' E 016°21'1 1.6
2018-Feb-17 06:30N 68°06' E 016°19'5 9.1
2018-Feb-17 06:00N 68°04' E 016°08'0 0.8
2018-Feb-17 05:30N 68°04' E 016°09'5 9.9
2018-Feb-17 05:00N 68°06' E 016°21'0 0.0
2018-Feb-17 04:30N 68°06' E 016°21'0 0.0
2018-Feb-17 04:00N 68°06' E 016°21'0 0.0
2018-Feb-17 03:30N 68°06' E 016°21'0 0.0
2018-Feb-17 03:00N 68°06' E 016°21'0 0.0
2018-Feb-17 02:30N 68°06' E 016°21'0 0.0
2018-Feb-17 02:00N 68°06' E 016°21'0 0.0
2018-Feb-17 01:30N 68°06' E 016°21'0 0.0
2018-Feb-17 01:00N 68°06' E 016°21'0 0.0
2018-Feb-17 00:30N 68°06' E 016°21'0 0.0
2018-Feb-17 00:00N 68°06' E 016°21'0 0.0
2018-Feb-16 23:30N 68°06' E 016°21'0 0.0
2018-Feb-16 23:00N 68°06' E 016°21'2 4.9
2018-Feb-16 22:30N 68°06' E 016°15'5 9.5
2018-Feb-16 22:00N 68°03' E 016°05'2 5.0
2018-Feb-16 21:30N 68°05' E 016°10'4 8.9
2018-Feb-16 21:00N 68°06' E 016°21'2 4.9
2018-Feb-16 20:30N 68°06' E 016°15'5 9.8
2018-Feb-16 20:00N 68°03' E 016°05'3 5.0
2018-Feb-16 19:29N 68°05' E 016°10'4 8.8
2018-Feb-16 19:00N 68°06' E 016°21'2 5.0
2018-Feb-16 18:31N 68°06' E 016°15'5 9.7
2018-Feb-16 18:00N 68°03' E 016°05'2 4.2
2018-Feb-16 17:31N 68°04' E 016°09'5 9.3
2018-Feb-16 16:59N 68°06' E 016°21'3 5.3
2018-Feb-16 16:30N 68°06' E 016°14'5 9.2
2018-Feb-16 16:01N 68°03' E 016°05'2 4.2
2018-Feb-16 15:30N 68°04' E 016°09'5 9.5
2018-Feb-16 15:00N 68°06' E 016°21'2 4.7
2018-Feb-16 14:30N 68°06' E 016°15'5 9.6
2018-Feb-16 14:00N 68°03' E 016°05'2 4.7
2018-Feb-16 13:30N 68°04' E 016°10'4 8.8
2018-Feb-16 13:00N 68°06' E 016°21'2 4.7
2018-Feb-16 12:29N 68°06' E 016°15'510.0
2018-Feb-16 12:00N 68°03' E 016°05'3 5.1
2018-Feb-16 11:29N 68°05' E 016°10'4 8.8
2018-Feb-16 11:00N 68°06' E 016°21'2 4.7
2018-Feb-16 10:30N 68°06' E 016°15'5 9.9
2018-Feb-16 10:00N 68°03' E 016°05'2 4.9
2018-Feb-16 09:30N 68°04' E 016°10'4 8.7
2018-Feb-16 09:00N 68°06' E 016°21'3 5.0
2018-Feb-16 08:29N 68°06' E 016°15'5 9.7
2018-Feb-16 08:00N 68°03' E 016°05'2 3.9
2018-Feb-16 07:29N 68°04' E 016°09'5 9.9
2018-Feb-16 07:00N 68°06' E 016°21'0 0.5
2018-Feb-16 06:30N 68°05' E 016°21'5 9.9
2018-Feb-16 06:01N 68°04' E 016°08'0 0.9
2018-Feb-16 05:30N 68°04' E 016°09'5 7.1
2018-Feb-16 04:49N 68°06' E 016°21'0 0.0
2018-Feb-16 04:28N 68°06' E 016°21'0 0.0
2018-Feb-16 03:58N 68°06' E 016°21'0 0.0
2018-Feb-16 03:28N 68°06' E 016°21'0 0.0
2018-Feb-16 02:55N 68°06' E 016°21'0 0.0
2018-Feb-16 02:25N 68°06' E 016°21'0 0.0
2018-Feb-16 01:58N 68°06' E 016°21'0 0.0
2018-Feb-16 01:28N 68°06' E 016°21'0 0.0
2018-Feb-16 00:58N 68°06' E 016°21'0 0.0
2018-Feb-16 00:28N 68°06' E 016°21'0 0.0
2018-Feb-15 23:58N 68°06' E 016°21'0 0.0
2018-Feb-15 23:28N 68°06' E 016°21'0 0.0
2018-Feb-15 22:58N 68°06' E 016°21'2 5.2
2018-Feb-15 22:30N 68°06' E 016°15'5 9.7
2018-Feb-15 22:00N 68°03' E 016°05'2 4.2
2018-Feb-15 21:30N 68°04' E 016°09'5 9.4
2018-Feb-15 21:00N 68°06' E 016°21'2 4.5
2018-Feb-15 20:28N 68°06' E 016°15'510.3
2018-Feb-15 20:00N 68°03' E 016°05'2 3.9
2018-Feb-15 19:31N 68°04' E 016°09'5 9.8
2018-Feb-15 19:00N 68°06' E 016°21'2 4.1
2018-Feb-15 18:30N 68°06' E 016°16'510.2
2018-Feb-15 18:00N 68°03' E 016°05'2 4.1
2018-Feb-15 17:31N 68°04' E 016°09'5 9.6
2018-Feb-15 17:00N 68°06' E 016°21'3 5.0
2018-Feb-15 16:30N 68°06' E 016°14'5 9.0
2018-Feb-15 15:59N 68°03' E 016°05'2 4.4
2018-Feb-15 15:30N 68°04' E 016°09'5 9.5
2018-Feb-15 15:01N 68°06' E 016°21'2 4.7
2018-Feb-15 14:30N 68°06' E 016°15'5 9.4
2018-Feb-15 14:00N 68°03' E 016°05'2 4.5
2018-Feb-15 13:30N 68°04' E 016°09'5 9.4
2018-Feb-15 13:00N 68°06' E 016°21'3 5.2
2018-Feb-15 12:30N 68°06' E 016°14'5 9.2
2018-Feb-15 12:00N 68°03' E 016°05'3 5.0
2018-Feb-15 11:30N 68°04' E 016°10'4 8.7
2018-Feb-15 11:00N 68°06' E 016°21'3 5.0
2018-Feb-15 10:28N 68°06' E 016°14'5 9.3
2018-Feb-15 09:59N 68°03' E 016°05'3 5.4
2018-Feb-15 09:30N 68°05' E 016°10'4 8.5
2018-Feb-15 09:00N 68°06' E 016°21'2 4.7
2018-Feb-15 08:31N 68°06' E 016°15'5 9.9
2018-Feb-15 08:00N 68°03' E 016°05'2 4.4
2018-Feb-15 07:30N 68°04' E 016°09'5 9.6
2018-Feb-15 07:01N 68°06' E 016°21'0 0.7
2018-Feb-15 06:30N 68°05' E 016°20'5 9.7
2018-Feb-15 05:59N 68°04' E 016°08'1 1.3
2018-Feb-15 05:30N 68°04' E 016°09'5 9.6
2018-Feb-15 05:00N 68°06' E 016°21'0 0.0
2018-Feb-15 04:30N 68°06' E 016°21'0 0.0
2018-Feb-15 04:00N 68°06' E 016°21'0 0.0
2018-Feb-15 03:30N 68°06' E 016°21'0 0.0
2018-Feb-15 03:00N 68°06' E 016°21'0 0.0
2018-Feb-15 02:30N 68°06' E 016°21'0 0.0
2018-Feb-15 02:00N 68°06' E 016°21'0 0.0
2018-Feb-15 01:30N 68°06' E 016°21'0 0.0
2018-Feb-15 01:00N 68°06' E 016°21'0 0.0
2018-Feb-15 00:30N 68°06' E 016°21'0 0.0
2018-Feb-15 00:00N 68°06' E 016°21'0 0.0
2018-Feb-14 23:30N 68°06' E 016°21'0 0.0
2018-Feb-14 23:00N 68°06' E 016°21'2 5.0
2018-Feb-14 22:30N 68°06' E 016°15'5 9.6
2018-Feb-14 22:00N 68°03' E 016°05'2 4.3
2018-Feb-14 21:30N 68°04' E 016°09'5 9.3
2018-Feb-14 21:00N 68°06' E 016°21'2 4.9
2018-Feb-14 20:31N 68°06' E 016°15'5 9.6
2018-Feb-14 20:00N 68°03' E 016°05'2 4.1
2018-Feb-14 19:30N 68°04' E 016°09'5 9.8
2018-Feb-14 19:00N 68°06' E 016°21'2 4.7
2018-Feb-14 18:30N 68°06' E 016°15'510.0
2018-Feb-14 18:00N 68°03' E 016°05'3 5.1
2018-Feb-14 17:30N 68°05' E 016°10'4 8.8
2018-Feb-14 17:00N 68°06' E 016°21'3 5.5
2018-Feb-14 16:30N 68°06' E 016°14'4 8.8
2018-Feb-14 16:00N 68°03' E 016°05'2 4.6
2018-Feb-14 15:31N 68°04' E 016°09'5 9.2
2018-Feb-14 15:00N 68°06' E 016°21'2 4.5
2018-Feb-14 14:31N 68°06' E 016°15'5 9.6
2018-Feb-14 14:00N 68°03' E 016°05'2 4.6
2018-Feb-14 13:30N 68°04' E 016°09'5 9.2
2018-Feb-14 13:00N 68°06' E 016°21'2 4.7
2018-Feb-14 12:31N 68°06' E 016°15'5 9.7
2018-Feb-14 12:00N 68°03' E 016°05'3 5.2
2018-Feb-14 11:29N 68°05' E 016°10'4 8.9
2018-Feb-14 11:01N 68°06' E 016°21'2 4.3
2018-Feb-14 10:31N 68°06' E 016°16'5 9.6
2018-Feb-14 09:59N 68°03' E 016°05'3 5.3
2018-Feb-14 09:29N 68°05' E 016°10'4 9.0
2018-Feb-14 09:00N 68°06' E 016°21'2 4.4
2018-Feb-14 08:30N 68°06' E 016°15'5 9.9
2018-Feb-14 07:59N 68°03' E 016°05'1 2.5
2018-Feb-14 07:31N 68°04' E 016°07'610.9
2018-Feb-14 07:00N 68°06' E 016°21'1 1.7
2018-Feb-14 06:29N 68°06' E 016°19'5 9.7
2018-Feb-14 06:00N 68°04' E 016°07'1 1.4
2018-Feb-14 05:30N 68°04' E 016°09'5 9.6
2018-Feb-14 05:00N 68°06' E 016°21'0 0.0
2018-Feb-14 04:30N 68°06' E 016°21'0 0.0
2018-Feb-14 04:00N 68°06' E 016°21'0 0.0
2018-Feb-14 03:30N 68°06' E 016°21'0 0.0
2018-Feb-14 03:00N 68°06' E 016°21'0 0.0
2018-Feb-14 02:30N 68°06' E 016°21'0 0.0
2018-Feb-14 01:59N 68°06' E 016°21'0 0.0
2018-Feb-14 01:30N 68°06' E 016°21'0 0.0
2018-Feb-14 01:00N 68°06' E 016°21'0 0.0
2018-Feb-14 00:29N 68°06' E 016°21'0 0.0
2018-Feb-14 00:01N 68°06' E 016°21'0 0.0
2018-Feb-13 23:30N 68°06' E 016°21'0 0.0
2018-Feb-13 23:00N 68°06' E 016°21'2 3.7
2018-Feb-13 22:30N 68°06' E 016°17'510.6
2018-Feb-13 21:59N 68°03' E 016°05'2 3.9
2018-Feb-13 21:30N 68°04' E 016°09'5 9.5
2018-Feb-13 20:59N 68°06' E 016°21'2 4.5
2018-Feb-13 20:30N 68°06' E 016°16'510.0
2018-Feb-13 20:00N 68°03' E 016°05'2 4.1
2018-Feb-13 19:30N 68°04' E 016°09'5 9.4
2018-Feb-13 18:59N 68°06' E 016°21'2 4.9
2018-Feb-13 18:31N 68°06' E 016°15'5 9.6
2018-Feb-13 18:00N 68°03' E 016°05'2 3.6
2018-Feb-13 17:31N 68°04' E 016°08'510.0
2018-Feb-13 17:00N 68°06' E 016°21'2 4.4
2018-Feb-13 16:29N 68°06' E 016°15'510.3
2018-Feb-13 16:00N 68°03' E 016°05'2 4.1
2018-Feb-13 15:30N 68°04' E 016°09'5 9.3
2018-Feb-13 14:59N 68°06' E 016°21'2 4.4
2018-Feb-13 14:30N 68°06' E 016°16'510.2
2018-Feb-13 14:01N 68°03' E 016°05'2 3.9
2018-Feb-13 13:30N 68°04' E 016°09'5 9.8
2018-Feb-13 13:00N 68°06' E 016°21'2 4.0
2018-Feb-13 12:30N 68°06' E 016°16'510.5
2018-Feb-13 12:01N 68°03' E 016°05'2 4.3
2018-Feb-13 11:30N 68°04' E 016°09'5 9.2
2018-Feb-13 10:59N 68°06' E 016°21'2 4.7
2018-Feb-13 10:30N 68°06' E 016°15'5 9.8
2018-Feb-13 10:00N 68°03' E 016°05'2 4.1
2018-Feb-13 09:30N 68°04' E 016°09'5 9.5
2018-Feb-13 09:00N 68°06' E 016°21'2 4.0
2018-Feb-13 08:30N 68°06' E 016°16'510.4
2018-Feb-13 08:00N 68°03' E 016°05'2 4.2
2018-Feb-13 07:30N 68°04' E 016°09'5 9.6
2018-Feb-13 07:00N 68°06' E 016°21'1 1.3
2018-Feb-13 06:31N 68°05' E 016°20'5 9.6
2018-Feb-13 06:00N 68°04' E 016°07'1 1.5
2018-Feb-13 05:30N 68°04' E 016°09'5 9.5
2018-Feb-13 04:59N 68°06' E 016°21'0 0.0
2018-Feb-13 04:29N 68°06' E 016°21'0 0.0
2018-Feb-13 03:58N 68°06' E 016°21'0 0.0
2018-Feb-13 03:25N 68°06' E 016°21'0 0.0
2018-Feb-13 02:59N 68°06' E 016°21'0 0.0
2018-Feb-13 02:28N 68°06' E 016°21'0 0.0
2018-Feb-13 01:58N 68°06' E 016°21'0 0.0
2018-Feb-13 01:28N 68°06' E 016°21'0 0.0
2018-Feb-13 00:58N 68°06' E 016°21'0 0.0
2018-Feb-13 00:28N 68°06' E 016°21'0 0.0
2018-Feb-12 23:58N 68°06' E 016°21'0 0.0
2018-Feb-12 23:29N 68°06' E 016°21'0 0.0
2018-Feb-12 23:00N 68°06' E 016°21'2 5.1
2018-Feb-12 22:30N 68°06' E 016°15'5 9.3
2018-Feb-12 22:00N 68°03' E 016°05'2 3.8
2018-Feb-12 21:31N 68°04' E 016°08'5 9.9
2018-Feb-12 21:00N 68°06' E 016°21'2 4.5
2018-Feb-12 20:30N 68°06' E 016°15'5 9.9
2018-Feb-12 20:00N 68°03' E 016°05'2 4.0
2018-Feb-12 19:30N 68°04' E 016°09'5 9.7
2018-Feb-12 18:59N 68°06' E 016°21'2 4.6
2018-Feb-12 18:30N 68°06' E 016°15'510.1
2018-Feb-12 18:00N 68°03' E 016°05'2 3.6
2018-Feb-12 17:30N 68°04' E 016°08'510.3
2018-Feb-12 17:01N 68°06' E 016°21'2 4.2
2018-Feb-12 16:30N 68°06' E 016°16'510.3
2018-Feb-12 16:00N 68°03' E 016°05'2 3.8
2018-Feb-12 15:30N 68°04' E 016°09'5 9.6
2018-Feb-12 15:00N 68°06' E 016°21'2 4.4
2018-Feb-12 14:29N 68°06' E 016°15'510.2
2018-Feb-12 14:00N 68°03' E 016°05'2 4.1
2018-Feb-12 13:30N 68°04' E 016°09'5 9.6
2018-Feb-12 13:01N 68°06' E 016°21'2 4.0
2018-Feb-12 12:30N 68°06' E 016°16'510.2
2018-Feb-12 12:00N 68°03' E 016°05'2 4.3
2018-Feb-12 11:29N 68°04' E 016°09'5 9.8
2018-Feb-12 11:00N 68°06' E 016°21'2 4.2
2018-Feb-12 10:31N 68°06' E 016°16'510.1
2018-Feb-12 10:00N 68°03' E 016°05'2 4.4
2018-Feb-12 09:30N 68°04' E 016°09'5 9.3
2018-Feb-12 09:00N 68°06' E 016°21'2 4.2
2018-Feb-12 08:30N 68°06' E 016°16'510.1
2018-Feb-12 08:00N 68°03' E 016°05'2 4.0
2018-Feb-12 07:30N 68°04' E 016°09'5 9.6
2018-Feb-12 07:00N 68°06' E 016°21'1 1.1
2018-Feb-12 06:30N 68°05' E 016°20'5 9.6
2018-Feb-12 05:59N 68°04' E 016°07'1 1.5
2018-Feb-12 05:29N 68°04' E 016°09'5 9.5
2018-Feb-12 04:59N 68°06' E 016°21'0 0.0
2018-Feb-12 04:30N 68°06' E 016°21'0 0.0
2018-Feb-12 03:59N 68°06' E 016°21'0 0.0
2018-Feb-12 03:30N 68°06' E 016°21'0 0.0
2018-Feb-12 03:00N 68°06' E 016°21'0 0.0
2018-Feb-12 02:30N 68°06' E 016°21'0 0.0
2018-Feb-12 01:59N 68°06' E 016°21'0 0.0
2018-Feb-12 01:30N 68°06' E 016°21'0 0.0
2018-Feb-12 01:00N 68°06' E 016°21'0 0.0
2018-Feb-12 00:30N 68°06' E 016°21'0 0.0
2018-Feb-12 00:00N 68°06' E 016°21'0 0.0
2018-Feb-11 23:30N 68°06' E 016°21'0 0.0
2018-Feb-11 23:00N 68°06' E 016°21'2 4.5
2018-Feb-11 22:30N 68°06' E 016°15'510.0
2018-Feb-11 22:00N 68°03' E 016°05'2 3.5
2018-Feb-11 21:30N 68°04' E 016°08'5 9.9
2018-Feb-11 20:59N 68°06' E 016°21'2 4.0
2018-Feb-11 20:30N 68°06' E 016°16'510.5
2018-Feb-11 20:00N 68°03' E 016°05'2 4.1
2018-Feb-11 19:30N 68°04' E 016°09'5 9.7
2018-Feb-11 19:00N 68°06' E 016°21'2 4.4
2018-Feb-11 18:30N 68°06' E 016°15'510.2
2018-Feb-11 18:00N 68°03' E 016°05'2 4.0
2018-Feb-11 17:30N 68°04' E 016°09'5 9.6
2018-Feb-11 17:00N 68°06' E 016°21'2 4.2
2018-Feb-11 16:30N 68°06' E 016°16'510.2
2018-Feb-11 16:00N 68°03' E 016°05'2 4.5
2018-Feb-11 15:29N 68°04' E 016°10'5 9.5
2018-Feb-11 15:00N 68°06' E 016°21'2 4.1
2018-Feb-11 14:29N 68°06' E 016°16'510.3
2018-Feb-11 13:59N 68°03' E 016°05'2 3.8
2018-Feb-11 13:30N 68°04' E 016°09'5 9.7
2018-Feb-11 12:59N 68°06' E 016°21'2 4.4
2018-Feb-11 12:30N 68°06' E 016°16'510.2
2018-Feb-11 12:00N 68°03' E 016°05'2 4.0
2018-Feb-11 11:30N 68°04' E 016°09'5 9.7
2018-Feb-11 11:00N 68°06' E 016°21'2 4.2
2018-Feb-11 10:30N 68°06' E 016°16'510.4
2018-Feb-11 10:01N 68°03' E 016°05'2 4.0
2018-Feb-11 09:30N 68°04' E 016°09'5 9.5
2018-Feb-11 09:00N 68°06' E 016°21'2 4.2
2018-Feb-11 08:30N 68°06' E 016°16'510.4
2018-Feb-11 08:00N 68°03' E 016°05'2 4.1
2018-Feb-11 07:30N 68°04' E 016°09'5 9.7
2018-Feb-11 07:00N 68°06' E 016°21'1 1.2
2018-Feb-11 06:30N 68°05' E 016°20'5 9.5
2018-Feb-11 06:00N 68°04' E 016°08'1 1.3
2018-Feb-11 05:29N 68°04' E 016°09'5 9.8
2018-Feb-11 05:00N 68°06' E 016°21'0 0.0
2018-Feb-11 04:30N 68°06' E 016°21'0 0.0
2018-Feb-11 04:00N 68°06' E 016°21'0 0.0
2018-Feb-11 03:30N 68°06' E 016°21'0 0.0
2018-Feb-11 02:59N 68°06' E 016°21'0 0.0
2018-Feb-11 02:30N 68°06' E 016°21'0 0.0
2018-Feb-11 02:00N 68°06' E 016°21'0 0.0
2018-Feb-11 01:31N 68°06' E 016°21'0 0.0
2018-Feb-11 01:00N 68°06' E 016°21'0 0.0
2018-Feb-11 00:30N 68°06' E 016°21'0 0.0
2018-Feb-11 00:01N 68°06' E 016°21'0 0.0
2018-Feb-10 23:30N 68°06' E 016°21'0 0.0
2018-Feb-10 23:00N 68°06' E 016°21'2 4.3
2018-Feb-10 22:30N 68°06' E 016°16'510.1
2018-Feb-10 22:00N 68°03' E 016°05'2 3.7
2018-Feb-10 21:30N 68°04' E 016°09'510.0
2018-Feb-10 21:00N 68°06' E 016°21'2 4.4
2018-Feb-10 20:29N 68°06' E 016°15'510.3
2018-Feb-10 20:00N 68°03' E 016°05'2 3.7
2018-Feb-10 19:31N 68°04' E 016°08'5 9.8
2018-Feb-10 19:00N 68°06' E 016°21'2 4.4
2018-Feb-10 18:30N 68°06' E 016°16'5 9.6
2018-Feb-10 17:58N 68°03' E 016°05'2 4.3
2018-Feb-10 17:29N 68°04' E 016°09'5 9.7
2018-Feb-10 16:59N 68°06' E 016°21'2 4.6
2018-Feb-10 16:30N 68°06' E 016°15'5 9.8
2018-Feb-10 15:59N 68°03' E 016°05'2 3.8
2018-Feb-10 15:30N 68°04' E 016°09'510.1
2018-Feb-10 15:00N 68°06' E 016°21'2 4.1
2018-Feb-10 14:30N 68°06' E 016°16'510.1
2018-Feb-10 14:00N 68°03' E 016°05'2 4.1
2018-Feb-10 13:30N 68°04' E 016°09'5 9.7
2018-Feb-10 13:00N 68°06' E 016°21'3 5.3
2018-Feb-10 12:30N 68°06' E 016°14'4 8.9
2018-Feb-10 12:00N 68°03' E 016°05'2 3.9
2018-Feb-10 11:30N 68°04' E 016°09'5 9.8
2018-Feb-10 11:00N 68°06' E 016°21'2 4.6
2018-Feb-10 10:29N 68°06' E 016°15'5 9.7
2018-Feb-10 09:59N 68°03' E 016°05'2 4.3
2018-Feb-10 09:30N 68°04' E 016°09'5 9.5
2018-Feb-10 09:00N 68°06' E 016°21'2 4.3
2018-Feb-10 08:29N 68°06' E 016°16'510.2
2018-Feb-10 08:00N 68°03' E 016°05'2 3.4
2018-Feb-10 07:31N 68°04' E 016°08'510.0
2018-Feb-10 06:59N 68°06' E 016°21'0 0.8
2018-Feb-10 06:30N 68°06' E 016°20'5 9.9
2018-Feb-10 06:00N 68°04' E 016°08'1 1.0
2018-Feb-10 05:30N 68°04' E 016°09'5 9.6
2018-Feb-10 04:59N 68°06' E 016°21'0 0.0
2018-Feb-10 04:30N 68°06' E 016°21'0 0.0
2018-Feb-10 04:00N 68°06' E 016°21'0 0.0
2018-Feb-10 03:29N 68°06' E 016°21'0 0.0
2018-Feb-10 03:00N 68°06' E 016°21'0 0.0
2018-Feb-10 02:30N 68°06' E 016°21'0 0.0
2018-Feb-10 02:00N 68°06' E 016°21'0 0.0
2018-Feb-10 01:30N 68°06' E 016°21'0 0.0
2018-Feb-10 01:00N 68°06' E 016°21'0 0.0
2018-Feb-10 00:30N 68°06' E 016°21'0 0.0
2018-Feb-10 00:00N 68°06' E 016°21'0 0.0
2018-Feb-09 23:30N 68°06' E 016°21'0 0.0
2018-Feb-09 22:59N 68°06' E 016°21'0 0.0
2018-Feb-09 22:46N 68°06' E 016°21'7 2.4
2018-Feb-09 20:01N 68°03' E 016°05'0 0.0
2018-Feb-09 12:00N 68°03' E 016°05'2 0.3
2018-Feb-09 06:00N 68°04' E 016°08'5 2.1
2018-Feb-09 03:30N 68°06' E 016°21'5 0.6
2018-Feb-08 19:30N 68°04' E 016°09'  
Track history (hours):
 
Tides and Currents Weather Stations Pressure Air Temp Water Temp Dewpoint Dewpoint Depression Visibility Wind Speed Wind Dir Waves Ship Positions

Vardehorn

Last reported at 2018-Feb-18 19:30 UTC. Time now 2018-Feb-18 19:35 UTC.
Position N 68°04' E 016°10'.

Length 112 m; draft 3.2 m.

Type: Passenger vessel. MMSI: 259650000.

Date/timePositionNaut miles runAvg speedWind from/ knotsBaromVisibWave heightAir tempDewpointWater temp
2018-Feb-18 19:30N 68°04' E 016°10'4 8.5
2018-Feb-18 18:59N 68°06' E 016°21'3 5.8
2018-Feb-18 18:30N 68°06' E 016°14'4 9.0
2018-Feb-18 18:00N 68°03' E 016°05'3 6.2
2018-Feb-18 17:30N 68°05' E 016°11'4 7.7
2018-Feb-18 17:00N 68°06' E 016°21'3 5.4
2018-Feb-18 16:30N 68°06' E 016°14'4 8.8
2018-Feb-18 16:00N 68°03' E 016°05'3 5.4
2018-Feb-18 15:30N 68°05' E 016°10'4 8.4
2018-Feb-18 15:00N 68°06' E 016°21'3 5.5
2018-Feb-18 14:29N 68°06' E 016°14'4 8.4
2018-Feb-18 13:59N 68°03' E 016°05'3 5.5
2018-Feb-18 13:30N 68°05' E 016°10'4 8.6
2018-Feb-18 13:00N 68°06' E 016°21'3 5.2
2018-Feb-18 12:30N 68°06' E 016°14'4 8.9
2018-Feb-18 12:00N 68°03' E 016°05'3 5.2
2018-Feb-18 11:30N 68°05' E 016°10'4 8.6
2018-Feb-18 11:00N 68°06' E 016°21'3 5.1
2018-Feb-18 10:30N 68°06' E 016°14'5 8.7
2018-Feb-18 09:59N 68°03' E 016°05'3 5.5
2018-Feb-18 09:29N 68°05' E 016°11'4 8.4
2018-Feb-18 08:59N 68°06' E 016°21'3 5.6
2018-Feb-18 08:29N 68°06' E 016°14'4 8.8
2018-Feb-18 08:00N 68°03' E 016°05'2 3.8
2018-Feb-18 07:29N 68°04' E 016°09'510.1
2018-Feb-18 07:01N 68°06' E 016°21'1 2.1
2018-Feb-18 06:30N 68°06' E 016°18'5 9.2
2018-Feb-18 06:00N 68°04' E 016°07'2 3.0
2018-Feb-18 05:29N 68°05' E 016°10'4 9.0
2018-Feb-18 05:00N 68°06' E 016°21'0 0.0
2018-Feb-18 04:30N 68°06' E 016°21'0 0.0
2018-Feb-18 04:00N 68°06' E 016°21'0 0.0
2018-Feb-18 03:30N 68°06' E 016°21'0 0.0
2018-Feb-18 03:00N 68°06' E 016°21'0 0.0
2018-Feb-18 02:30N 68°06' E 016°21'0 0.0
2018-Feb-18 02:00N 68°06' E 016°21'0 0.0
2018-Feb-18 01:30N 68°06' E 016°21'0 0.0
2018-Feb-18 01:00N 68°06' E 016°21'0 0.0
2018-Feb-18 00:30N 68°06' E 016°21'0 0.0
2018-Feb-18 00:00N 68°06' E 016°21'0 0.0
2018-Feb-17 23:30N 68°06' E 016°21'0 0.0
2018-Feb-17 23:00N 68°06' E 016°21'3 5.1
2018-Feb-17 22:30N 68°06' E 016°15'5 9.6
2018-Feb-17 22:01N 68°03' E 016°05'2 4.2
2018-Feb-17 21:30N 68°04' E 016°09'5 9.2
2018-Feb-17 21:00N 68°06' E 016°21'2 4.8
2018-Feb-17 20:30N 68°06' E 016°15'5 9.9
2018-Feb-17 20:00N 68°03' E 016°05'2 4.7
2018-Feb-17 19:30N 68°04' E 016°10'4 9.0
2018-Feb-17 19:00N 68°06' E 016°21'3 5.0
2018-Feb-17 18:30N 68°06' E 016°15'5 9.7
2018-Feb-17 18:01N 68°03' E 016°05'2 4.8
2018-Feb-17 17:30N 68°04' E 016°10'4 8.8
2018-Feb-17 17:00N 68°06' E 016°21'3 5.2
2018-Feb-17 16:29N 68°06' E 016°14'4 9.1
2018-Feb-17 16:00N 68°03' E 016°05'3 5.1
2018-Feb-17 15:30N 68°05' E 016°10'4 8.5
2018-Feb-17 15:00N 68°06' E 016°21'3 5.3
2018-Feb-17 14:29N 68°06' E 016°14'4 9.3
2018-Feb-17 14:01N 68°03' E 016°05'3 5.0
2018-Feb-17 13:30N 68°04' E 016°10'4 8.6
2018-Feb-17 13:00N 68°06' E 016°21'3 5.6
2018-Feb-17 12:31N 68°06' E 016°14'4 8.4
2018-Feb-17 12:00N 68°03' E 016°05'3 5.3
2018-Feb-17 11:30N 68°05' E 016°10'4 8.5
2018-Feb-17 11:00N 68°06' E 016°21'3 5.2
2018-Feb-17 10:30N 68°06' E 016°15'5 9.1
2018-Feb-17 10:01N 68°03' E 016°05'3 5.1
2018-Feb-17 09:30N 68°05' E 016°10'4 8.4
2018-Feb-17 09:00N 68°06' E 016°21'3 5.3
2018-Feb-17 08:29N 68°06' E 016°14'4 9.0
2018-Feb-17 08:00N 68°03' E 016°05'2 3.9
2018-Feb-17 07:29N 68°04' E 016°09'5 9.6
2018-Feb-17 06:59N 68°06' E 016°21'1 1.6
2018-Feb-17 06:30N 68°06' E 016°19'5 9.1
2018-Feb-17 06:00N 68°04' E 016°08'0 0.8
2018-Feb-17 05:30N 68°04' E 016°09'5 9.9
2018-Feb-17 05:00N 68°06' E 016°21'0 0.0
2018-Feb-17 04:30N 68°06' E 016°21'0 0.0
2018-Feb-17 04:00N 68°06' E 016°21'0 0.0
2018-Feb-17 03:30N 68°06' E 016°21'0 0.0
2018-Feb-17 03:00N 68°06' E 016°21'0 0.0
2018-Feb-17 02:30N 68°06' E 016°21'0 0.0
2018-Feb-17 02:00N 68°06' E 016°21'0 0.0
2018-Feb-17 01:30N 68°06' E 016°21'0 0.0
2018-Feb-17 01:00N 68°06' E 016°21'0 0.0
2018-Feb-17 00:30N 68°06' E 016°21'0 0.0
2018-Feb-17 00:00N 68°06' E 016°21'0 0.0
2018-Feb-16 23:30N 68°06' E 016°21'0 0.0
2018-Feb-16 23:00N 68°06' E 016°21'2 4.9
2018-Feb-16 22:30N 68°06' E 016°15'5 9.5
2018-Feb-16 22:00N 68°03' E 016°05'2 5.0
2018-Feb-16 21:30N 68°05' E 016°10'4 8.9
2018-Feb-16 21:00N 68°06' E 016°21'2 4.9
2018-Feb-16 20:30N 68°06' E 016°15'5 9.8
2018-Feb-16 20:00N 68°03' E 016°05'3 5.0
2018-Feb-16 19:29N 68°05' E 016°10'4 8.8
2018-Feb-16 19:00N 68°06' E 016°21'2 5.0
2018-Feb-16 18:31N 68°06' E 016°15'5 9.7
2018-Feb-16 18:00N 68°03' E 016°05'2 4.2
2018-Feb-16 17:31N 68°04' E 016°09'5 9.3
2018-Feb-16 16:59N 68°06' E 016°21'3 5.3
2018-Feb-16 16:30N 68°06' E 016°14'5 9.2
2018-Feb-16 16:01N 68°03' E 016°05'2 4.2
2018-Feb-16 15:30N 68°04' E 016°09'5 9.5
2018-Feb-16 15:00N 68°06' E 016°21'2 4.7
2018-Feb-16 14:30N 68°06' E 016°15'5 9.6
2018-Feb-16 14:00N 68°03' E 016°05'2 4.7
2018-Feb-16 13:30N 68°04' E 016°10'4 8.8
2018-Feb-16 13:00N 68°06' E 016°21'2 4.7
2018-Feb-16 12:29N 68°06' E 016°15'510.0
2018-Feb-16 12:00N 68°03' E 016°05'3 5.1
2018-Feb-16 11:29N 68°05' E 016°10'4 8.8
2018-Feb-16 11:00N 68°06' E 016°21'2 4.7
2018-Feb-16 10:30N 68°06' E 016°15'5 9.9
2018-Feb-16 10:00N 68°03' E 016°05'2 4.9
2018-Feb-16 09:30N 68°04' E 016°10'4 8.7
2018-Feb-16 09:00N 68°06' E 016°21'3 5.0
2018-Feb-16 08:29N 68°06' E 016°15'5 9.7
2018-Feb-16 08:00N 68°03' E 016°05'2 3.9
2018-Feb-16 07:29N 68°04' E 016°09'5 9.9
2018-Feb-16 07:00N 68°06' E 016°21'0 0.5
2018-Feb-16 06:30N 68°05' E 016°21'5 9.9
2018-Feb-16 06:01N 68°04' E 016°08'0 0.9
2018-Feb-16 05:30N 68°04' E 016°09'5 7.1
2018-Feb-16 04:49N 68°06' E 016°21'0 0.0
2018-Feb-16 04:28N 68°06' E 016°21'0 0.0
2018-Feb-16 03:58N 68°06' E 016°21'0 0.0
2018-Feb-16 03:28N 68°06' E 016°21'0 0.0
2018-Feb-16 02:55N 68°06' E 016°21'0 0.0
2018-Feb-16 02:25N 68°06' E 016°21'0 0.0
2018-Feb-16 01:58N 68°06' E 016°21'0 0.0
2018-Feb-16 01:28N 68°06' E 016°21'0 0.0
2018-Feb-16 00:58N 68°06' E 016°21'0 0.0
2018-Feb-16 00:28N 68°06' E 016°21'0 0.0
2018-Feb-15 23:58N 68°06' E 016°21'0 0.0
2018-Feb-15 23:28N 68°06' E 016°21'0 0.0
2018-Feb-15 22:58N 68°06' E 016°21'2 5.2
2018-Feb-15 22:30N 68°06' E 016°15'5 9.7
2018-Feb-15 22:00N 68°03' E 016°05'2 4.2
2018-Feb-15 21:30N 68°04' E 016°09'5 9.4
2018-Feb-15 21:00N 68°06' E 016°21'2 4.5
2018-Feb-15 20:28N 68°06' E 016°15'510.3
2018-Feb-15 20:00N 68°03' E 016°05'2 3.9
2018-Feb-15 19:31N 68°04' E 016°09'5 9.8
2018-Feb-15 19:00N 68°06' E 016°21'2 4.1
2018-Feb-15 18:30N 68°06' E 016°16'510.2
2018-Feb-15 18:00N 68°03' E 016°05'2 4.1
2018-Feb-15 17:31N 68°04' E 016°09'5 9.6
2018-Feb-15 17:00N 68°06' E 016°21'3 5.0
2018-Feb-15 16:30N 68°06' E 016°14'5 9.0
2018-Feb-15 15:59N 68°03' E 016°05'2 4.4
2018-Feb-15 15:30N 68°04' E 016°09'5 9.5
2018-Feb-15 15:01N 68°06' E 016°21'2 4.7
2018-Feb-15 14:30N 68°06' E 016°15'5 9.4
2018-Feb-15 14:00N 68°03' E 016°05'2 4.5
2018-Feb-15 13:30N 68°04' E 016°09'5 9.4
2018-Feb-15 13:00N 68°06' E 016°21'3 5.2
2018-Feb-15 12:30N 68°06' E 016°14'5 9.2
2018-Feb-15 12:00N 68°03' E 016°05'3 5.0
2018-Feb-15 11:30N 68°04' E 016°10'4 8.7
2018-Feb-15 11:00N 68°06' E 016°21'3 5.0
2018-Feb-15 10:28N 68°06' E 016°14'5 9.3
2018-Feb-15 09:59N 68°03' E 016°05'3 5.4
2018-Feb-15 09:30N 68°05' E 016°10'4 8.5
2018-Feb-15 09:00N 68°06' E 016°21'2 4.7
2018-Feb-15 08:31N 68°06' E 016°15'5 9.9
2018-Feb-15 08:00N 68°03' E 016°05'2 4.4
2018-Feb-15 07:30N 68°04' E 016°09'5 9.6
2018-Feb-15 07:01N 68°06' E 016°21'0 0.7
2018-Feb-15 06:30N 68°05' E 016°20'5 9.7
2018-Feb-15 05:59N 68°04' E 016°08'1 1.3
2018-Feb-15 05:30N 68°04' E 016°09'5 9.6
2018-Feb-15 05:00N 68°06' E 016°21'0 0.0
2018-Feb-15 04:30N 68°06' E 016°21'0 0.0
2018-Feb-15 04:00N 68°06' E 016°21'0 0.0
2018-Feb-15 03:30N 68°06' E 016°21'0 0.0
2018-Feb-15 03:00N 68°06' E 016°21'0 0.0
2018-Feb-15 02:30N 68°06' E 016°21'0 0.0
2018-Feb-15 02:00N 68°06' E 016°21'0 0.0
2018-Feb-15 01:30N 68°06' E 016°21'0 0.0
2018-Feb-15 01:00N 68°06' E 016°21'0 0.0
2018-Feb-15 00:30N 68°06' E 016°21'0 0.0
2018-Feb-15 00:00N 68°06' E 016°21'0 0.0
2018-Feb-14 23:30N 68°06' E 016°21'0 0.0
2018-Feb-14 23:00N 68°06' E 016°21'2 5.0
2018-Feb-14 22:30N 68°06' E 016°15'5 9.6
2018-Feb-14 22:00N 68°03' E 016°05'2 4.3
2018-Feb-14 21:30N 68°04' E 016°09'5 9.3
2018-Feb-14 21:00N 68°06' E 016°21'2 4.9
2018-Feb-14 20:31N 68°06' E 016°15'5 9.6
2018-Feb-14 20:00N 68°03' E 016°05'2 4.1
2018-Feb-14 19:30N 68°04' E 016°09'5 9.8
2018-Feb-14 19:00N 68°06' E 016°21'2 4.7
2018-Feb-14 18:30N 68°06' E 016°15'510.0
2018-Feb-14 18:00N 68°03' E 016°05'3 5.1
2018-Feb-14 17:30N 68°05' E 016°10'4 8.8
2018-Feb-14 17:00N 68°06' E 016°21'3 5.5
2018-Feb-14 16:30N 68°06' E 016°14'4 8.8
2018-Feb-14 16:00N 68°03' E 016°05'2 4.6
2018-Feb-14 15:31N 68°04' E 016°09'5 9.2
2018-Feb-14 15:00N 68°06' E 016°21'2 4.5
2018-Feb-14 14:31N 68°06' E 016°15'5 9.6
2018-Feb-14 14:00N 68°03' E 016°05'2 4.6
2018-Feb-14 13:30N 68°04' E 016°09'5 9.2
2018-Feb-14 13:00N 68°06' E 016°21'2 4.7
2018-Feb-14 12:31N 68°06' E 016°15'5 9.7
2018-Feb-14 12:00N 68°03' E 016°05'3 5.2
2018-Feb-14 11:29N 68°05' E 016°10'4 8.9
2018-Feb-14 11:01N 68°06' E 016°21'2 4.3
2018-Feb-14 10:31N 68°06' E 016°16'5 9.6
2018-Feb-14 09:59N 68°03' E 016°05'3 5.3
2018-Feb-14 09:29N 68°05' E 016°10'4 9.0
2018-Feb-14 09:00N 68°06' E 016°21'2 4.4
2018-Feb-14 08:30N 68°06' E 016°15'5 9.9
2018-Feb-14 07:59N 68°03' E 016°05'1 2.5
2018-Feb-14 07:31N 68°04' E 016°07'610.9
2018-Feb-14 07:00N 68°06' E 016°21'1 1.7
2018-Feb-14 06:29N 68°06' E 016°19'5 9.7
2018-Feb-14 06:00N 68°04' E 016°07'1 1.4
2018-Feb-14 05:30N 68°04' E 016°09'5 9.6
2018-Feb-14 05:00N 68°06' E 016°21'0 0.0
2018-Feb-14 04:30N 68°06' E 016°21'0 0.0
2018-Feb-14 04:00N 68°06' E 016°21'0 0.0
2018-Feb-14 03:30N 68°06' E 016°21'0 0.0
2018-Feb-14 03:00N 68°06' E 016°21'0 0.0
2018-Feb-14 02:30N 68°06' E 016°21'0 0.0
2018-Feb-14 01:59N 68°06' E 016°21'0 0.0
2018-Feb-14 01:30N 68°06' E 016°21'0 0.0
2018-Feb-14 01:00N 68°06' E 016°21'0 0.0
2018-Feb-14 00:29N 68°06' E 016°21'0 0.0
2018-Feb-14 00:01N 68°06' E 016°21'0 0.0
2018-Feb-13 23:30N 68°06' E 016°21'0 0.0
2018-Feb-13 23:00N 68°06' E 016°21'2 3.7
2018-Feb-13 22:30N 68°06' E 016°17'510.6
2018-Feb-13 21:59N 68°03' E 016°05'2 3.9
2018-Feb-13 21:30N 68°04' E 016°09'5 9.5
2018-Feb-13 20:59N 68°06' E 016°21'2 4.5
2018-Feb-13 20:30N 68°06' E 016°16'510.0
2018-Feb-13 20:00N 68°03' E 016°05'2 4.1
2018-Feb-13 19:30N 68°04' E 016°09'5 9.4
2018-Feb-13 18:59N 68°06' E 016°21'2 4.9
2018-Feb-13 18:31N 68°06' E 016°15'5 9.6
2018-Feb-13 18:00N 68°03' E 016°05'2 3.6
2018-Feb-13 17:31N 68°04' E 016°08'510.0
2018-Feb-13 17:00N 68°06' E 016°21'2 4.4
2018-Feb-13 16:29N 68°06' E 016°15'510.3
2018-Feb-13 16:00N 68°03' E 016°05'2 4.1
2018-Feb-13 15:30N 68°04' E 016°09'5 9.3
2018-Feb-13 14:59N 68°06' E 016°21'2 4.4
2018-Feb-13 14:30N 68°06' E 016°16'510.2
2018-Feb-13 14:01N 68°03' E 016°05'2 3.9
2018-Feb-13 13:30N 68°04' E 016°09'5 9.8
2018-Feb-13 13:00N 68°06' E 016°21'2 4.0
2018-Feb-13 12:30N 68°06' E 016°16'510.5
2018-Feb-13 12:01N 68°03' E 016°05'2 4.3
2018-Feb-13 11:30N 68°04' E 016°09'5 9.2
2018-Feb-13 10:59N 68°06' E 016°21'2 4.7
2018-Feb-13 10:30N 68°06' E 016°15'5 9.8
2018-Feb-13 10:00N 68°03' E 016°05'2 4.1
2018-Feb-13 09:30N 68°04' E 016°09'5 9.5
2018-Feb-13 09:00N 68°06' E 016°21'2 4.0
2018-Feb-13 08:30N 68°06' E 016°16'510.4
2018-Feb-13 08:00N 68°03' E 016°05'2 4.2
2018-Feb-13 07:30N 68°04' E 016°09'5 9.6
2018-Feb-13 07:00N 68°06' E 016°21'1 1.3
2018-Feb-13 06:31N 68°05' E 016°20'5 9.6
2018-Feb-13 06:00N 68°04' E 016°07'1 1.5
2018-Feb-13 05:30N 68°04' E 016°09'5 9.5
2018-Feb-13 04:59N 68°06' E 016°21'0 0.0
2018-Feb-13 04:29N 68°06' E 016°21'0 0.0
2018-Feb-13 03:58N 68°06' E 016°21'0 0.0
2018-Feb-13 03:25N 68°06' E 016°21'0 0.0
2018-Feb-13 02:59N 68°06' E 016°21'0 0.0
2018-Feb-13 02:28N 68°06' E 016°21'0 0.0
2018-Feb-13 01:58N 68°06' E 016°21'0 0.0
2018-Feb-13 01:28N 68°06' E 016°21'0 0.0
2018-Feb-13 00:58N 68°06' E 016°21'0 0.0
2018-Feb-13 00:28N 68°06' E 016°21'0 0.0
2018-Feb-12 23:58N 68°06' E 016°21'0 0.0
2018-Feb-12 23:29N 68°06' E 016°21'0 0.0
2018-Feb-12 23:00N 68°06' E 016°21'2 5.1
2018-Feb-12 22:30N 68°06' E 016°15'5 9.3
2018-Feb-12 22:00N 68°03' E 016°05'2 3.8
2018-Feb-12 21:31N 68°04' E 016°08'5 9.9
2018-Feb-12 21:00N 68°06' E 016°21'2 4.5
2018-Feb-12 20:30N 68°06' E 016°15'5 9.9
2018-Feb-12 20:00N 68°03' E 016°05'2 4.0
2018-Feb-12 19:30N 68°04' E 016°09'5 9.7
2018-Feb-12 18:59N 68°06' E 016°21'2 4.6
2018-Feb-12 18:30N 68°06' E 016°15'510.1
2018-Feb-12 18:00N 68°03' E 016°05'2 3.6
2018-Feb-12 17:30N 68°04' E 016°08'510.3
2018-Feb-12 17:01N 68°06' E 016°21'2 4.2
2018-Feb-12 16:30N 68°06' E 016°16'510.3
2018-Feb-12 16:00N 68°03' E 016°05'2 3.8
2018-Feb-12 15:30N 68°04' E 016°09'5 9.6
2018-Feb-12 15:00N 68°06' E 016°21'2 4.4
2018-Feb-12 14:29N 68°06' E 016°15'510.2
2018-Feb-12 14:00N 68°03' E 016°05'2 4.1
2018-Feb-12 13:30N 68°04' E 016°09'5 9.6
2018-Feb-12 13:01N 68°06' E 016°21'2 4.0
2018-Feb-12 12:30N 68°06' E 016°16'510.2
2018-Feb-12 12:00N 68°03' E 016°05'2 4.3
2018-Feb-12 11:29N 68°04' E 016°09'5 9.8
2018-Feb-12 11:00N 68°06' E 016°21'2 4.2
2018-Feb-12 10:31N 68°06' E 016°16'510.1
2018-Feb-12 10:00N 68°03' E 016°05'2 4.4
2018-Feb-12 09:30N 68°04' E 016°09'5 9.3
2018-Feb-12 09:00N 68°06' E 016°21'2 4.2
2018-Feb-12 08:30N 68°06' E 016°16'510.1
2018-Feb-12 08:00N 68°03' E 016°05'2 4.0
2018-Feb-12 07:30N 68°04' E 016°09'5 9.6
2018-Feb-12 07:00N 68°06' E 016°21'1 1.1
2018-Feb-12 06:30N 68°05' E 016°20'5 9.6
2018-Feb-12 05:59N 68°04' E 016°07'1 1.5
2018-Feb-12 05:29N 68°04' E 016°09'5 9.5
2018-Feb-12 04:59N 68°06' E 016°21'0 0.0
2018-Feb-12 04:30N 68°06' E 016°21'0 0.0
2018-Feb-12 03:59N 68°06' E 016°21'0 0.0
2018-Feb-12 03:30N 68°06' E 016°21'0 0.0
2018-Feb-12 03:00N 68°06' E 016°21'0 0.0
2018-Feb-12 02:30N 68°06' E 016°21'0 0.0
2018-Feb-12 01:59N 68°06' E 016°21'0 0.0
2018-Feb-12 01:30N 68°06' E 016°21'0 0.0
2018-Feb-12 01:00N 68°06' E 016°21'0 0.0
2018-Feb-12 00:30N 68°06' E 016°21'0 0.0
2018-Feb-12 00:00N 68°06' E 016°21'0 0.0
2018-Feb-11 23:30N 68°06' E 016°21'0 0.0
2018-Feb-11 23:00N 68°06' E 016°21'2 4.5
2018-Feb-11 22:30N 68°06' E 016°15'510.0
2018-Feb-11 22:00N 68°03' E 016°05'2 3.5
2018-Feb-11 21:30N 68°04' E 016°08'5 9.9
2018-Feb-11 20:59N 68°06' E 016°21'2 4.0
2018-Feb-11 20:30N 68°06' E 016°16'510.5
2018-Feb-11 20:00N 68°03' E 016°05'2 4.1
2018-Feb-11 19:30N 68°04' E 016°09'5 9.7
2018-Feb-11 19:00N 68°06' E 016°21'2 4.4
2018-Feb-11 18:30N 68°06' E 016°15'510.2
2018-Feb-11 18:00N 68°03' E 016°05'2 4.0
2018-Feb-11 17:30N 68°04' E 016°09'5 9.6
2018-Feb-11 17:00N 68°06' E 016°21'2 4.2
2018-Feb-11 16:30N 68°06' E 016°16'510.2
2018-Feb-11 16:00N 68°03' E 016°05'2 4.5
2018-Feb-11 15:29N 68°04' E 016°10'5 9.5
2018-Feb-11 15:00N 68°06' E 016°21'2 4.1
2018-Feb-11 14:29N 68°06' E 016°16'510.3
2018-Feb-11 13:59N 68°03' E 016°05'2 3.8
2018-Feb-11 13:30N 68°04' E 016°09'5 9.7
2018-Feb-11 12:59N 68°06' E 016°21'2 4.4
2018-Feb-11 12:30N 68°06' E 016°16'510.2
2018-Feb-11 12:00N 68°03' E 016°05'2 4.0
2018-Feb-11 11:30N 68°04' E 016°09'5 9.7
2018-Feb-11 11:00N 68°06' E 016°21'2 4.2
2018-Feb-11 10:30N 68°06' E 016°16'510.4
2018-Feb-11 10:01N 68°03' E 016°05'2 4.0
2018-Feb-11 09:30N 68°04' E 016°09'5 9.5
2018-Feb-11 09:00N 68°06' E 016°21'2 4.2
2018-Feb-11 08:30N 68°06' E 016°16'510.4
2018-Feb-11 08:00N 68°03' E 016°05'2 4.1
2018-Feb-11 07:30N 68°04' E 016°09'5 9.7
2018-Feb-11 07:00N 68°06' E 016°21'1 1.2
2018-Feb-11 06:30N 68°05' E 016°20'5 9.5
2018-Feb-11 06:00N 68°04' E 016°08'1 1.3
2018-Feb-11 05:29N 68°04' E 016°09'5 9.8
2018-Feb-11 05:00N 68°06' E 016°21'0 0.0
2018-Feb-11 04:30N 68°06' E 016°21'0 0.0
2018-Feb-11 04:00N 68°06' E 016°21'0 0.0
2018-Feb-11 03:30N 68°06' E 016°21'0 0.0
2018-Feb-11 02:59N 68°06' E 016°21'0 0.0
2018-Feb-11 02:30N 68°06' E 016°21'0 0.0
2018-Feb-11 02:00N 68°06' E 016°21'0 0.0
2018-Feb-11 01:31N 68°06' E 016°21'0 0.0
2018-Feb-11 01:00N 68°06' E 016°21'0 0.0
2018-Feb-11 00:30N 68°06' E 016°21'0 0.0
2018-Feb-11 00:01N 68°06' E 016°21'0 0.0
2018-Feb-10 23:30N 68°06' E 016°21'0 0.0
2018-Feb-10 23:00N 68°06' E 016°21'2 4.3
2018-Feb-10 22:30N 68°06' E 016°16'510.1
2018-Feb-10 22:00N 68°03' E 016°05'2 3.7
2018-Feb-10 21:30N 68°04' E 016°09'510.0
2018-Feb-10 21:00N 68°06' E 016°21'2 4.4
2018-Feb-10 20:29N 68°06' E 016°15'510.3
2018-Feb-10 20:00N 68°03' E 016°05'2 3.7
2018-Feb-10 19:31N 68°04' E 016°08'5 9.8
2018-Feb-10 19:00N 68°06' E 016°21'2 4.4
2018-Feb-10 18:30N 68°06' E 016°16'5 9.6
2018-Feb-10 17:58N 68°03' E 016°05'2 4.3
2018-Feb-10 17:29N 68°04' E 016°09'5 9.7
2018-Feb-10 16:59N 68°06' E 016°21'2 4.6
2018-Feb-10 16:30N 68°06' E 016°15'5 9.8
2018-Feb-10 15:59N 68°03' E 016°05'2 3.8
2018-Feb-10 15:30N 68°04' E 016°09'510.1
2018-Feb-10 15:00N 68°06' E 016°21'2 4.1
2018-Feb-10 14:30N 68°06' E 016°16'510.1
2018-Feb-10 14:00N 68°03' E 016°05'2 4.1
2018-Feb-10 13:30N 68°04' E 016°09'5 9.7
2018-Feb-10 13:00N 68°06' E 016°21'3 5.3
2018-Feb-10 12:30N 68°06' E 016°14'4 8.9
2018-Feb-10 12:00N 68°03' E 016°05'2 3.9
2018-Feb-10 11:30N 68°04' E 016°09'5 9.8
2018-Feb-10 11:00N 68°06' E 016°21'2 4.6
2018-Feb-10 10:29N 68°06' E 016°15'5 9.7
2018-Feb-10 09:59N 68°03' E 016°05'2 4.3
2018-Feb-10 09:30N 68°04' E 016°09'5 9.5
2018-Feb-10 09:00N 68°06' E 016°21'2 4.3
2018-Feb-10 08:29N 68°06' E 016°16'510.2
2018-Feb-10 08:00N 68°03' E 016°05'2 3.4
2018-Feb-10 07:31N 68°04' E 016°08'510.0
2018-Feb-10 06:59N 68°06' E 016°21'0 0.8
2018-Feb-10 06:30N 68°06' E 016°20'5 9.9
2018-Feb-10 06:00N 68°04' E 016°08'1 1.0
2018-Feb-10 05:30N 68°04' E 016°09'5 9.6
2018-Feb-10 04:59N 68°06' E 016°21'0 0.0
2018-Feb-10 04:30N 68°06' E 016°21'0 0.0
2018-Feb-10 04:00N 68°06' E 016°21'0 0.0
2018-Feb-10 03:29N 68°06' E 016°21'0 0.0
2018-Feb-10 03:00N 68°06' E 016°21'0 0.0
2018-Feb-10 02:30N 68°06' E 016°21'0 0.0
2018-Feb-10 02:00N 68°06' E 016°21'0 0.0
2018-Feb-10 01:30N 68°06' E 016°21'0 0.0
2018-Feb-10 01:00N 68°06' E 016°21'0 0.0
2018-Feb-10 00:30N 68°06' E 016°21'0 0.0
2018-Feb-10 00:00N 68°06' E 016°21'0 0.0
2018-Feb-09 23:30N 68°06' E 016°21'0 0.0
2018-Feb-09 22:59N 68°06' E 016°21'0 0.0
2018-Feb-09 22:46N 68°06' E 016°21'7 2.4
2018-Feb-09 20:01N 68°03' E 016°05'0 0.0
2018-Feb-09 12:00N 68°03' E 016°05'2 0.3
2018-Feb-09 06:00N 68°04' E 016°08'5 2.1
2018-Feb-09 03:30N 68°06' E 016°21'5 0.6
2018-Feb-08 19:30N 68°04' E 016°09'  

Dump ship's entire track history